DLH75K LIRQ-LOWI
Flight info
| Callsign | DLH75K |
|---|---|
| Flight time | N/A |
| Altitude | 30000 |
| Route | OKMAP DCT OMAKU DCT BOA DCT BAMEK DCT NAXAV M726 EKPIS/N0387F160 M726 BRENO BRENO4B |
| Aircraft | A320/M-SDE3FGHIRWY/LB1 |
Departure
| Time | 2026-05-05 17:35 |
|---|---|
| Airport | Florence Airport, Peretola (LIRQ) |
Arrival
| Time | N/A |
|---|---|
| Airport | Innsbruck Airport (LOWI) |
| Time | Latitude | Longitude | Altitude | Speed | Heading |
|---|---|---|---|---|---|
| 2026-05-05 17:16 | 43.80381 | 11.20038 | 132 ft | 0 kts | 267° |
| 2026-05-05 17:30 | 43.80384 | 11.19991 | 129 ft | 10 kts | 292° |
| 2026-05-05 17:31 | 43.80443 | 11.19959 | 131 ft | 9 kts | 2° |
| 2026-05-05 17:31 | 43.80494 | 11.19972 | 132 ft | 7 kts | 13° |
| 2026-05-05 17:31 | 43.80592 | 11.20006 | 131 ft | 21 kts | 14° |
| 2026-05-05 17:31 | 43.80725 | 11.20080 | 133 ft | 20 kts | 39° |
| 2026-05-05 17:32 | 43.80820 | 11.20226 | 133 ft | 21 kts | 50° |
| 2026-05-05 17:32 | 43.80922 | 11.20384 | 134 ft | 22 kts | 48° |
| 2026-05-05 17:32 | 43.81029 | 11.20550 | 134 ft | 24 kts | 48° |
| 2026-05-05 17:32 | 43.81135 | 11.20714 | 138 ft | 22 kts | 48° |
| 2026-05-05 17:33 | 43.81241 | 11.20879 | 144 ft | 20 kts | 49° |
| 2026-05-05 17:33 | 43.81263 | 11.21049 | 148 ft | 18 kts | 94° |
| 2026-05-05 17:33 | 43.81266 | 11.21223 | 149 ft | 18 kts | 66° |
| 2026-05-05 17:33 | 43.81345 | 11.21347 | 151 ft | 17 kts | 45° |
| 2026-05-05 17:34 | 43.81454 | 11.21360 | 150 ft | 17 kts | 343° |
| 2026-05-05 17:34 | 43.81492 | 11.21264 | 147 ft | 12 kts | 243° |
| 2026-05-05 17:34 | 43.81475 | 11.21235 | 148 ft | 0 kts | 227° |
| 2026-05-05 17:34 | 43.81352 | 11.21047 | 146 ft | 70 kts | 228° |
| 2026-05-05 17:35 | 43.80833 | 11.20246 | 135 ft | 149 kts | 228° |
| 2026-05-05 17:35 | 43.80087 | 11.19071 | 657 ft | 169 kts | 231° |
| 2026-05-05 17:35 | 43.79778 | 11.17508 | 1445 ft | 180 kts | 278° |
| 2026-05-05 17:35 | 43.80258 | 11.15736 | 1698 ft | 213 kts | 291° |
| 2026-05-05 17:36 | 43.80522 | 11.13733 | 2437 ft | 212 kts | 265° |
| 2026-05-05 17:36 | 43.80534 | 11.11679 | 3261 ft | 214 kts | 271° |
| 2026-05-05 17:36 | 43.80686 | 11.09624 | 4093 ft | 215 kts | 274° |
| 2026-05-05 17:36 | 43.80868 | 11.07562 | 4907 ft | 217 kts | 274° |
| 2026-05-05 17:37 | 43.81031 | 11.05513 | 5702 ft | 217 kts | 273° |
| 2026-05-05 17:37 | 43.81132 | 11.04106 | 6260 ft | 218 kts | 273° |
| 2026-05-05 17:37 | 43.81697 | 11.01405 | 7217 ft | 227 kts | 296° |
| 2026-05-05 17:37 | 43.82704 | 10.99692 | 7993 ft | 234 kts | 315° |
| 2026-05-05 17:38 | 43.84112 | 10.98500 | 8746 ft | 243 kts | 334° |
| 2026-05-05 17:38 | 43.85797 | 10.98033 | 9510 ft | 253 kts | 355° |
| 2026-05-05 17:38 | 43.87556 | 10.98471 | 10216 ft | 264 kts | 19° |
| 2026-05-05 17:38 | 43.89119 | 10.99870 | 10869 ft | 273 kts | 44° |
| 2026-05-05 17:39 | 43.90187 | 11.02064 | 11480 ft | 278 kts | 71° |
| 2026-05-05 17:39 | 43.90696 | 11.04702 | 11882 ft | 295 kts | 77° |
| 2026-05-05 17:39 | 43.91662 | 11.07314 | 12095 ft | 319 kts | 45° |
| 2026-05-05 17:39 | 43.93532 | 11.09073 | 12288 ft | 336 kts | 18° |
| 2026-05-05 17:40 | 43.95844 | 11.09977 | 12470 ft | 355 kts | 7° |
| 2026-05-05 17:40 | 43.98353 | 11.10528 | 12599 ft | 375 kts | 3° |
| 2026-05-05 17:40 | 44.01014 | 11.11022 | 12793 ft | 395 kts | 4° |
| 2026-05-05 17:40 | 44.03768 | 11.11630 | 13334 ft | 404 kts | 6° |
| 2026-05-05 17:41 | 44.06550 | 11.12398 | 13953 ft | 411 kts | 9° |
| 2026-05-05 17:41 | 44.09355 | 11.13312 | 14513 ft | 415 kts | 10° |